Menalon — SXCH — position and weather

sailwx.info

Track history (hours):
 
Tides and Currents Weather Stations Pressure Air Temp Water Temp Dewpoint Dewpoint Depression Visibility Wind Speed Wind Dir Waves Ship Positions

Menalon

Last reported at 2014-Dec-19 22:33 UTC. Time now 2014-Dec-20 20:11 UTC.
Position N 37°53' E 023°21'.

; draft 4 m.

Type: Ship (hazmat cat C). MMSI: 239741000.

Date/timePositionNaut miles runAvg speedWind from/ knotsBaromVisibWave heightAir tempDewpointWater temp
2014-Dec-19 22:33N 37°53' E 023°21'9 9.3
2014-Dec-19 21:33N 37°55' E 023°33'3 2.8
2014-Dec-19 20:34N 37°57' E 023°34'0 0.0
2014-Dec-19 19:33N 37°57' E 023°34'0 0.0
2014-Dec-19 18:33N 37°57' E 023°34'0 0.0
2014-Dec-19 17:33N 37°57' E 023°34'0 0.1
2014-Dec-19 16:33N 37°57' E 023°34'0 0.0
2014-Dec-19 15:33N 37°57' E 023°34'0 0.0
2014-Dec-19 14:33N 37°57' E 023°34'0 0.0
2014-Dec-19 13:33N 37°57' E 023°34'0 0.0
2014-Dec-19 12:33N 37°57' E 023°34'0 0.1
2014-Dec-19 11:33N 37°57' E 023°34'0 0.0
2014-Dec-19 10:33N 37°57' E 023°34'0 0.0
2014-Dec-19 09:33N 37°57' E 023°34'0 0.0
2014-Dec-19 08:33N 37°57' E 023°34'0 0.0
2014-Dec-19 07:33N 37°57' E 023°34'0 0.0
2014-Dec-19 06:33N 37°57' E 023°34'0 0.0
2014-Dec-19 05:33N 37°57' E 023°34'0 0.0
2014-Dec-19 04:33N 37°57' E 023°34'0 0.0
2014-Dec-19 03:33N 37°57' E 023°34'0 0.0
2014-Dec-19 02:33N 37°57' E 023°34'0 0.0
2014-Dec-19 01:33N 37°57' E 023°34'0 0.0
2014-Dec-19 00:33N 37°57' E 023°34'0 0.0
2014-Dec-18 23:33N 37°57' E 023°34'0 0.0
2014-Dec-18 22:33N 37°57' E 023°34'0 0.0
2014-Dec-18 21:33N 37°57' E 023°34'5 4.9
2014-Dec-18 20:33N 37°53' E 023°32'0 0.1
2014-Dec-18 19:33N 37°53' E 023°32'0 0.1
2014-Dec-18 18:33N 37°53' E 023°32'0 0.0
2014-Dec-18 17:33N 37°53' E 023°32'0 0.0
2014-Dec-18 16:33N 37°53' E 023°32'0 0.0
2014-Dec-18 15:33N 37°53' E 023°32'0 0.1
2014-Dec-18 14:33N 37°53' E 023°32'0 0.0
2014-Dec-18 13:33N 37°53' E 023°32'0 0.1
2014-Dec-18 12:33N 37°53' E 023°32'0 0.1
2014-Dec-18 11:33N 37°53' E 023°32'0 0.0
2014-Dec-18 10:33N 37°53' E 023°32'0 0.2
2014-Dec-18 09:33N 37°53' E 023°32'0 0.1
2014-Dec-18 08:33N 37°53' E 023°32'5 5.0
2014-Dec-18 07:33N 37°57' E 023°34'0 0.0
2014-Dec-18 06:33N 37°57' E 023°34'0 0.0
2014-Dec-18 05:33N 37°57' E 023°34'0 0.0
2014-Dec-18 04:33N 37°57' E 023°34'0 0.0
2014-Dec-18 03:33N 37°57' E 023°34'0 0.0
2014-Dec-18 02:33N 37°57' E 023°34'0 0.0
2014-Dec-18 01:33N 37°57' E 023°34'0 0.0
2014-Dec-18 00:34N 37°57' E 023°34'0 0.1
2014-Dec-17 23:33N 37°57' E 023°34'4 4.1
2014-Dec-17 22:33N 37°53' E 023°34'1 0.9
2014-Dec-17 21:33N 37°53' E 023°33'0 0.1
2014-Dec-17 20:33N 37°53' E 023°33'0 0.1
2014-Dec-17 19:33N 37°53' E 023°33'0 0.0
2014-Dec-17 18:33N 37°53' E 023°33'0 0.0
2014-Dec-17 17:33N 37°53' E 023°33'1 1.2
2014-Dec-17 16:33N 37°54' E 023°32'4 4.1
2014-Dec-17 15:33N 37°57' E 023°35'0 0.0
2014-Dec-17 14:33N 37°57' E 023°35'0 0.0
2014-Dec-17 13:33N 37°57' E 023°35'0 0.0
2014-Dec-17 12:32N 37°57' E 023°35'0 0.0
2014-Dec-17 11:33N 37°57' E 023°35'0 0.0
2014-Dec-17 10:33N 37°57' E 023°35'0 0.0
2014-Dec-17 09:33N 37°57' E 023°35'0 0.0
2014-Dec-17 08:32N 37°57' E 023°35'0 0.0
2014-Dec-17 07:33N 37°57' E 023°35'0 0.0
2014-Dec-17 06:33N 37°57' E 023°35'0 0.0
2014-Dec-17 05:33N 37°57' E 023°35'0 0.0
2014-Dec-17 04:33N 37°57' E 023°35'0 0.0
2014-Dec-17 03:33N 37°57' E 023°35'0 0.0
2014-Dec-17 02:33N 37°57' E 023°35'0 0.0
2014-Dec-17 01:33N 37°57' E 023°35'0 0.0
2014-Dec-17 00:32N 37°57' E 023°35'0 0.0
2014-Dec-16 23:32N 37°57' E 023°35'0 0.0
2014-Dec-16 22:32N 37°57' E 023°35'0 0.0
2014-Dec-16 21:33N 37°57' E 023°35'0 0.0
2014-Dec-16 20:33N 37°57' E 023°35'0 0.0
2014-Dec-16 19:33N 37°57' E 023°35'0 0.0
2014-Dec-16 18:33N 37°57' E 023°35'0 0.0
2014-Dec-16 17:33N 37°57' E 023°35'4 4.5
2014-Dec-16 16:33N 37°53' E 023°34'1 1.3
2014-Dec-16 15:33N 37°52' E 023°33'0 0.0
2014-Dec-16 14:33N 37°52' E 023°33'0 0.0
2014-Dec-16 13:33N 37°52' E 023°33'0 0.0
2014-Dec-16 12:33N 37°52' E 023°33'0 0.0
2014-Dec-16 11:33N 37°52' E 023°33'0 0.0
2014-Dec-16 10:33N 37°52' E 023°33'0 0.4
2014-Dec-16 09:33N 37°52' E 023°32'3 2.8
2014-Dec-16 08:33N 37°54' E 023°33'3 3.2
2014-Dec-16 07:33N 37°57' E 023°35'0 0.0
2014-Dec-16 06:33N 37°57' E 023°35'0 0.0
2014-Dec-16 05:33N 37°57' E 023°35'0 0.0
2014-Dec-16 04:33N 37°57' E 023°35'0 0.0
2014-Dec-16 03:32N 37°57' E 023°35'0 0.0
2014-Dec-16 02:33N 37°57' E 023°35'0 0.0
2014-Dec-16 01:22N 37°57' E 023°35'0 0.0
2014-Dec-16 00:33N 37°57' E 023°35'1 1.4
2014-Dec-15 23:33N 37°56' E 023°35'6 5.7
2014-Dec-15 22:33N 37°51' E 023°30'0 0.0
2014-Dec-15 21:33N 37°51' E 023°30'0 0.0
2014-Dec-15 20:33N 37°51' E 023°30'0 0.0
2014-Dec-15 19:33N 37°51' E 023°30'5 5.5
2014-Dec-15 18:33N 37°52' E 023°23'10 9.4
2014-Dec-15 17:32N 37°54' E 023°12'5 5.3
2014-Dec-15 16:33N 37°55' E 023°05'0 0.0
2014-Dec-15 15:33N 37°55' E 023°05'0 0.0
2014-Dec-15 14:33N 37°55' E 023°05'0 0.0
2014-Dec-15 13:33N 37°55' E 023°05'0 0.0
2014-Dec-15 12:33N 37°55' E 023°05'0 0.0
2014-Dec-15 11:33N 37°55' E 023°05'0 0.0
2014-Dec-15 10:33N 37°55' E 023°05'0 0.0
2014-Dec-15 09:33N 37°55' E 023°05'0 0.0
2014-Dec-15 08:33N 37°55' E 023°05'0 0.0
2014-Dec-15 07:33N 37°55' E 023°05'12 6.0
2014-Dec-15 05:32N 37°53' E 023°20'9 9.2
2014-Dec-15 04:33N 37°54' E 023°32'4 4.4
2014-Dec-15 03:33N 37°57' E 023°35'0 0.0
2014-Dec-15 02:33N 37°57' E 023°35'0 0.0
2014-Dec-15 01:33N 37°57' E 023°35'0 0.0
2014-Dec-15 00:33N 37°57' E 023°35'0 0.0
2014-Dec-14 23:33N 37°57' E 023°35'0 0.0
2014-Dec-14 22:33N 37°57' E 023°35'0 0.0
2014-Dec-14 21:33N 37°57' E 023°35'0 0.0
2014-Dec-14 20:33N 37°57' E 023°35'0 0.0
2014-Dec-14 19:33N 37°57' E 023°35'0 0.0
2014-Dec-14 18:33N 37°57' E 023°35'0 0.0
2014-Dec-14 17:33N 37°57' E 023°35'0 0.1
2014-Dec-14 16:33N 37°57' E 023°35'0 0.0
2014-Dec-14 15:33N 37°57' E 023°35'0 0.0
2014-Dec-14 14:33N 37°57' E 023°35'0 0.0
2014-Dec-14 13:33N 37°57' E 023°35'0 0.0
2014-Dec-14 12:33N 37°57' E 023°35'0 0.0
2014-Dec-14 11:33N 37°57' E 023°35'0 0.0
2014-Dec-14 10:33N 37°57' E 023°35'0 0.0
2014-Dec-14 09:33N 37°57' E 023°35'0 0.0
2014-Dec-14 08:33N 37°57' E 023°35'0 0.1
2014-Dec-14 07:33N 37°57' E 023°35'0 0.0
2014-Dec-14 06:33N 37°57' E 023°35'0 0.0
2014-Dec-14 05:33N 37°57' E 023°35'0 0.0
2014-Dec-14 04:33N 37°57' E 023°35'0 0.1
2014-Dec-14 03:33N 37°57' E 023°35'6 5.8
2014-Dec-14 02:33N 37°52' E 023°32'1 1.3
2014-Dec-14 01:33N 37°51' E 023°31'0 0.0
2014-Dec-14 00:33N 37°51' E 023°31'0 0.0
2014-Dec-13 23:33N 37°51' E 023°31'0 0.0
2014-Dec-13 22:33N 37°51' E 023°31'3 2.7
2014-Dec-13 21:33N 37°53' E 023°32'4 4.2
2014-Dec-13 20:33N 37°57' E 023°35'0 0.0
2014-Dec-13 19:33N 37°57' E 023°35'0 0.0
2014-Dec-13 18:33N 37°57' E 023°35'0 0.0
2014-Dec-13 17:33N 37°57' E 023°35'0 0.0
2014-Dec-13 16:33N 37°57' E 023°35'0 0.0
2014-Dec-13 15:33N 37°57' E 023°35'0 0.0
2014-Dec-13 14:33N 37°57' E 023°35'0 0.0
2014-Dec-13 13:33N 37°57' E 023°35'0 0.0
2014-Dec-13 12:33N 37°57' E 023°35'0 0.0
2014-Dec-13 11:33N 37°57' E 023°35'0 0.0
2014-Dec-13 10:33N 37°57' E 023°35'0 0.0
2014-Dec-13 09:33N 37°57' E 023°35'0 0.0
2014-Dec-13 08:33N 37°57' E 023°35'0 0.0
2014-Dec-13 07:33N 37°57' E 023°35'6 6.3
2014-Dec-13 06:33N 37°52' E 023°30'0 0.0
2014-Dec-13 05:33N 37°52' E 023°30'0 0.0
2014-Dec-13 04:33N 37°52' E 023°30'0 0.1
2014-Dec-13 03:33N 37°52' E 023°30'1 1.1
2014-Dec-13 02:33N 37°51' E 023°30'7 6.6
2014-Dec-13 01:33N 37°52' E 023°21'12 9.7
2014-Dec-13 00:20N 37°54' E 023°07'2 2.2
2014-Dec-12 23:32N 37°55' E 023°04'12 4.0
2014-Dec-12 20:33N 37°53' E 023°20'9 8.9
2014-Dec-12 19:33N 37°52' E 023°31'2 2.0
2014-Dec-12 18:33N 37°52' E 023°33'0 0.0
2014-Dec-12 17:33N 37°52' E 023°33'0 0.0
2014-Dec-12 16:33N 37°52' E 023°33'0 0.0
2014-Dec-12 15:33N 37°52' E 023°33'5 5.3
2014-Dec-12 14:33N 37°57' E 023°36'0 0.2
2014-Dec-12 13:33N 37°57' E 023°36'0 0.0
2014-Dec-12 12:33N 37°57' E 023°36'0 0.0
2014-Dec-12 11:33N 37°57' E 023°36'2 1.8
2014-Dec-12 10:33N 37°57' E 023°34'0 0.1
2014-Dec-12 09:33N 37°57' E 023°34'0 0.0
2014-Dec-12 08:33N 37°57' E 023°34'0 0.0
2014-Dec-12 07:33N 37°57' E 023°34'0 0.0
2014-Dec-12 06:33N 37°57' E 023°34'0 0.0
2014-Dec-12 05:33N 37°57' E 023°34'0 0.0
2014-Dec-12 04:33N 37°57' E 023°34'0 0.0
2014-Dec-12 03:33N 37°57' E 023°34'0 0.0
2014-Dec-12 02:33N 37°57' E 023°34'0 0.0
2014-Dec-12 01:33N 37°57' E 023°34'0 0.0
2014-Dec-12 00:33N 37°57' E 023°34'0 0.0
2014-Dec-11 23:33N 37°57' E 023°34'0 0.0
2014-Dec-11 22:33N 37°57' E 023°34'0 0.0
2014-Dec-11 21:33N 37°57' E 023°34'0 0.0
2014-Dec-11 20:33N 37°57' E 023°34'0 0.0
2014-Dec-11 19:33N 37°57' E 023°34'0 0.0
2014-Dec-11 18:33N 37°57' E 023°34'0 0.0
2014-Dec-11 17:33N 37°57' E 023°34'0 0.1
2014-Dec-11 16:33N 37°57' E 023°34'0 0.1
2014-Dec-11 15:33N 37°57' E 023°34'0 0.0
2014-Dec-11 14:33N 37°57' E 023°34'2 2.0
2014-Dec-11 13:33N 37°55' E 023°34'0 0.0
2014-Dec-11 12:33N 37°55' E 023°34'2 2.0
2014-Dec-11 11:33N 37°57' E 023°35'0 0.0
2014-Dec-11 10:33N 37°57' E 023°35'0 0.0
2014-Dec-11 09:33N 37°57' E 023°35'0 0.1
2014-Dec-11 08:33N 37°57' E 023°35'0 0.0
2014-Dec-11 07:33N 37°57' E 023°35'0 0.0
2014-Dec-11 06:33N 37°57' E 023°35'0 0.0
2014-Dec-11 05:33N 37°57' E 023°35'0 0.0
2014-Dec-11 04:33N 37°57' E 023°35'0 0.0
2014-Dec-11 03:33N 37°57' E 023°35'0 0.0
2014-Dec-11 02:33N 37°57' E 023°35'0 0.0
2014-Dec-11 01:33N 37°57' E 023°35'0 0.0
2014-Dec-11 00:34N 37°57' E 023°35'2 2.3
2014-Dec-10 23:33N 37°55' E 023°33'9 8.9
2014-Dec-10 22:33N 37°52' E 023°23'10 9.2
2014-Dec-10 21:31N 37°54' E 023°11'5 4.9
2014-Dec-10 20:33N 37°55' E 023°05'0 0.0
2014-Dec-10 19:33N 37°55' E 023°05'0 0.0
2014-Dec-10 18:33N 37°55' E 023°05'0 0.0
2014-Dec-10 17:33N 37°55' E 023°05'0 0.0
2014-Dec-10 16:33N 37°55' E 023°05'0 0.0
2014-Dec-10 15:33N 37°55' E 023°05'0 0.0
2014-Dec-10 14:33N 37°55' E 023°05'0 0.0
2014-Dec-10 13:33N 37°55' E 023°05'0 0.0
2014-Dec-10 12:33N 37°55' E 023°05'0 0.0
2014-Dec-10 11:33N 37°55' E 023°05'0 0.0
2014-Dec-10 10:33N 37°55' E 023°05'1 0.7
2014-Dec-10 09:25N 37°54' E 023°05'  
Track history (hours):
 
Tides and Currents Weather Stations Pressure Air Temp Water Temp Dewpoint Dewpoint Depression Visibility Wind Speed Wind Dir Waves Ship Positions

Menalon

Last reported at 2014-Dec-19 22:33 UTC. Time now 2014-Dec-20 20:11 UTC.
Position N 37°53' E 023°21'.

; draft 4 m.

Type: Ship (hazmat cat C). MMSI: 239741000.

Date/timePositionNaut miles runAvg speedWind from/ knotsBaromVisibWave heightAir tempDewpointWater temp
2014-Dec-19 22:33N 37°53' E 023°21'9 9.3
2014-Dec-19 21:33N 37°55' E 023°33'3 2.8
2014-Dec-19 20:34N 37°57' E 023°34'0 0.0
2014-Dec-19 19:33N 37°57' E 023°34'0 0.0
2014-Dec-19 18:33N 37°57' E 023°34'0 0.0
2014-Dec-19 17:33N 37°57' E 023°34'0 0.1
2014-Dec-19 16:33N 37°57' E 023°34'0 0.0
2014-Dec-19 15:33N 37°57' E 023°34'0 0.0
2014-Dec-19 14:33N 37°57' E 023°34'0 0.0
2014-Dec-19 13:33N 37°57' E 023°34'0 0.0
2014-Dec-19 12:33N 37°57' E 023°34'0 0.1
2014-Dec-19 11:33N 37°57' E 023°34'0 0.0
2014-Dec-19 10:33N 37°57' E 023°34'0 0.0
2014-Dec-19 09:33N 37°57' E 023°34'0 0.0
2014-Dec-19 08:33N 37°57' E 023°34'0 0.0
2014-Dec-19 07:33N 37°57' E 023°34'0 0.0
2014-Dec-19 06:33N 37°57' E 023°34'0 0.0
2014-Dec-19 05:33N 37°57' E 023°34'0 0.0
2014-Dec-19 04:33N 37°57' E 023°34'0 0.0
2014-Dec-19 03:33N 37°57' E 023°34'0 0.0
2014-Dec-19 02:33N 37°57' E 023°34'0 0.0
2014-Dec-19 01:33N 37°57' E 023°34'0 0.0
2014-Dec-19 00:33N 37°57' E 023°34'0 0.0
2014-Dec-18 23:33N 37°57' E 023°34'0 0.0
2014-Dec-18 22:33N 37°57' E 023°34'0 0.0
2014-Dec-18 21:33N 37°57' E 023°34'5 4.9
2014-Dec-18 20:33N 37°53' E 023°32'0 0.1
2014-Dec-18 19:33N 37°53' E 023°32'0 0.1
2014-Dec-18 18:33N 37°53' E 023°32'0 0.0
2014-Dec-18 17:33N 37°53' E 023°32'0 0.0
2014-Dec-18 16:33N 37°53' E 023°32'0 0.0
2014-Dec-18 15:33N 37°53' E 023°32'0 0.1
2014-Dec-18 14:33N 37°53' E 023°32'0 0.0
2014-Dec-18 13:33N 37°53' E 023°32'0 0.1
2014-Dec-18 12:33N 37°53' E 023°32'0 0.1
2014-Dec-18 11:33N 37°53' E 023°32'0 0.0
2014-Dec-18 10:33N 37°53' E 023°32'0 0.2
2014-Dec-18 09:33N 37°53' E 023°32'0 0.1
2014-Dec-18 08:33N 37°53' E 023°32'5 5.0
2014-Dec-18 07:33N 37°57' E 023°34'0 0.0
2014-Dec-18 06:33N 37°57' E 023°34'0 0.0
2014-Dec-18 05:33N 37°57' E 023°34'0 0.0
2014-Dec-18 04:33N 37°57' E 023°34'0 0.0
2014-Dec-18 03:33N 37°57' E 023°34'0 0.0
2014-Dec-18 02:33N 37°57' E 023°34'0 0.0
2014-Dec-18 01:33N 37°57' E 023°34'0 0.0
2014-Dec-18 00:34N 37°57' E 023°34'0 0.1
2014-Dec-17 23:33N 37°57' E 023°34'4 4.1
2014-Dec-17 22:33N 37°53' E 023°34'1 0.9
2014-Dec-17 21:33N 37°53' E 023°33'0 0.1
2014-Dec-17 20:33N 37°53' E 023°33'0 0.1
2014-Dec-17 19:33N 37°53' E 023°33'0 0.0
2014-Dec-17 18:33N 37°53' E 023°33'0 0.0
2014-Dec-17 17:33N 37°53' E 023°33'1 1.2
2014-Dec-17 16:33N 37°54' E 023°32'4 4.1
2014-Dec-17 15:33N 37°57' E 023°35'0 0.0
2014-Dec-17 14:33N 37°57' E 023°35'0 0.0
2014-Dec-17 13:33N 37°57' E 023°35'0 0.0
2014-Dec-17 12:32N 37°57' E 023°35'0 0.0
2014-Dec-17 11:33N 37°57' E 023°35'0 0.0
2014-Dec-17 10:33N 37°57' E 023°35'0 0.0
2014-Dec-17 09:33N 37°57' E 023°35'0 0.0
2014-Dec-17 08:32N 37°57' E 023°35'0 0.0
2014-Dec-17 07:33N 37°57' E 023°35'0 0.0
2014-Dec-17 06:33N 37°57' E 023°35'0 0.0
2014-Dec-17 05:33N 37°57' E 023°35'0 0.0
2014-Dec-17 04:33N 37°57' E 023°35'0 0.0
2014-Dec-17 03:33N 37°57' E 023°35'0 0.0
2014-Dec-17 02:33N 37°57' E 023°35'0 0.0
2014-Dec-17 01:33N 37°57' E 023°35'0 0.0
2014-Dec-17 00:32N 37°57' E 023°35'0 0.0
2014-Dec-16 23:32N 37°57' E 023°35'0 0.0
2014-Dec-16 22:32N 37°57' E 023°35'0 0.0
2014-Dec-16 21:33N 37°57' E 023°35'0 0.0
2014-Dec-16 20:33N 37°57' E 023°35'0 0.0
2014-Dec-16 19:33N 37°57' E 023°35'0 0.0
2014-Dec-16 18:33N 37°57' E 023°35'0 0.0
2014-Dec-16 17:33N 37°57' E 023°35'4 4.5
2014-Dec-16 16:33N 37°53' E 023°34'1 1.3
2014-Dec-16 15:33N 37°52' E 023°33'0 0.0
2014-Dec-16 14:33N 37°52' E 023°33'0 0.0
2014-Dec-16 13:33N 37°52' E 023°33'0 0.0
2014-Dec-16 12:33N 37°52' E 023°33'0 0.0
2014-Dec-16 11:33N 37°52' E 023°33'0 0.0
2014-Dec-16 10:33N 37°52' E 023°33'0 0.4
2014-Dec-16 09:33N 37°52' E 023°32'3 2.8
2014-Dec-16 08:33N 37°54' E 023°33'3 3.2
2014-Dec-16 07:33N 37°57' E 023°35'0 0.0
2014-Dec-16 06:33N 37°57' E 023°35'0 0.0
2014-Dec-16 05:33N 37°57' E 023°35'0 0.0
2014-Dec-16 04:33N 37°57' E 023°35'0 0.0
2014-Dec-16 03:32N 37°57' E 023°35'0 0.0
2014-Dec-16 02:33N 37°57' E 023°35'0 0.0
2014-Dec-16 01:22N 37°57' E 023°35'0 0.0
2014-Dec-16 00:33N 37°57' E 023°35'1 1.4
2014-Dec-15 23:33N 37°56' E 023°35'6 5.7
2014-Dec-15 22:33N 37°51' E 023°30'0 0.0
2014-Dec-15 21:33N 37°51' E 023°30'0 0.0
2014-Dec-15 20:33N 37°51' E 023°30'0 0.0
2014-Dec-15 19:33N 37°51' E 023°30'5 5.5
2014-Dec-15 18:33N 37°52' E 023°23'10 9.4
2014-Dec-15 17:32N 37°54' E 023°12'5 5.3
2014-Dec-15 16:33N 37°55' E 023°05'0 0.0
2014-Dec-15 15:33N 37°55' E 023°05'0 0.0
2014-Dec-15 14:33N 37°55' E 023°05'0 0.0
2014-Dec-15 13:33N 37°55' E 023°05'0 0.0
2014-Dec-15 12:33N 37°55' E 023°05'0 0.0
2014-Dec-15 11:33N 37°55' E 023°05'0 0.0
2014-Dec-15 10:33N 37°55' E 023°05'0 0.0
2014-Dec-15 09:33N 37°55' E 023°05'0 0.0
2014-Dec-15 08:33N 37°55' E 023°05'0 0.0
2014-Dec-15 07:33N 37°55' E 023°05'12 6.0
2014-Dec-15 05:32N 37°53' E 023°20'9 9.2
2014-Dec-15 04:33N 37°54' E 023°32'4 4.4
2014-Dec-15 03:33N 37°57' E 023°35'0 0.0
2014-Dec-15 02:33N 37°57' E 023°35'0 0.0
2014-Dec-15 01:33N 37°57' E 023°35'0 0.0
2014-Dec-15 00:33N 37°57' E 023°35'0 0.0
2014-Dec-14 23:33N 37°57' E 023°35'0 0.0
2014-Dec-14 22:33N 37°57' E 023°35'0 0.0
2014-Dec-14 21:33N 37°57' E 023°35'0 0.0
2014-Dec-14 20:33N 37°57' E 023°35'0 0.0
2014-Dec-14 19:33N 37°57' E 023°35'0 0.0
2014-Dec-14 18:33N 37°57' E 023°35'0 0.0
2014-Dec-14 17:33N 37°57' E 023°35'0 0.1
2014-Dec-14 16:33N 37°57' E 023°35'0 0.0
2014-Dec-14 15:33N 37°57' E 023°35'0 0.0
2014-Dec-14 14:33N 37°57' E 023°35'0 0.0
2014-Dec-14 13:33N 37°57' E 023°35'0 0.0
2014-Dec-14 12:33N 37°57' E 023°35'0 0.0
2014-Dec-14 11:33N 37°57' E 023°35'0 0.0
2014-Dec-14 10:33N 37°57' E 023°35'0 0.0
2014-Dec-14 09:33N 37°57' E 023°35'0 0.0
2014-Dec-14 08:33N 37°57' E 023°35'0 0.1
2014-Dec-14 07:33N 37°57' E 023°35'0 0.0
2014-Dec-14 06:33N 37°57' E 023°35'0 0.0
2014-Dec-14 05:33N 37°57' E 023°35'0 0.0
2014-Dec-14 04:33N 37°57' E 023°35'0 0.1
2014-Dec-14 03:33N 37°57' E 023°35'6 5.8
2014-Dec-14 02:33N 37°52' E 023°32'1 1.3
2014-Dec-14 01:33N 37°51' E 023°31'0 0.0
2014-Dec-14 00:33N 37°51' E 023°31'0 0.0
2014-Dec-13 23:33N 37°51' E 023°31'0 0.0
2014-Dec-13 22:33N 37°51' E 023°31'3 2.7
2014-Dec-13 21:33N 37°53' E 023°32'4 4.2
2014-Dec-13 20:33N 37°57' E 023°35'0 0.0
2014-Dec-13 19:33N 37°57' E 023°35'0 0.0
2014-Dec-13 18:33N 37°57' E 023°35'0 0.0
2014-Dec-13 17:33N 37°57' E 023°35'0 0.0
2014-Dec-13 16:33N 37°57' E 023°35'0 0.0
2014-Dec-13 15:33N 37°57' E 023°35'0 0.0
2014-Dec-13 14:33N 37°57' E 023°35'0 0.0
2014-Dec-13 13:33N 37°57' E 023°35'0 0.0
2014-Dec-13 12:33N 37°57' E 023°35'0 0.0
2014-Dec-13 11:33N 37°57' E 023°35'0 0.0
2014-Dec-13 10:33N 37°57' E 023°35'0 0.0
2014-Dec-13 09:33N 37°57' E 023°35'0 0.0
2014-Dec-13 08:33N 37°57' E 023°35'0 0.0
2014-Dec-13 07:33N 37°57' E 023°35'6 6.3
2014-Dec-13 06:33N 37°52' E 023°30'0 0.0
2014-Dec-13 05:33N 37°52' E 023°30'0 0.0
2014-Dec-13 04:33N 37°52' E 023°30'0 0.1
2014-Dec-13 03:33N 37°52' E 023°30'1 1.1
2014-Dec-13 02:33N 37°51' E 023°30'7 6.6
2014-Dec-13 01:33N 37°52' E 023°21'12 9.7
2014-Dec-13 00:20N 37°54' E 023°07'2 2.2
2014-Dec-12 23:32N 37°55' E 023°04'12 4.0
2014-Dec-12 20:33N 37°53' E 023°20'9 8.9
2014-Dec-12 19:33N 37°52' E 023°31'2 2.0
2014-Dec-12 18:33N 37°52' E 023°33'0 0.0
2014-Dec-12 17:33N 37°52' E 023°33'0 0.0
2014-Dec-12 16:33N 37°52' E 023°33'0 0.0
2014-Dec-12 15:33N 37°52' E 023°33'5 5.3
2014-Dec-12 14:33N 37°57' E 023°36'0 0.2
2014-Dec-12 13:33N 37°57' E 023°36'0 0.0
2014-Dec-12 12:33N 37°57' E 023°36'0 0.0
2014-Dec-12 11:33N 37°57' E 023°36'2 1.8
2014-Dec-12 10:33N 37°57' E 023°34'0 0.1
2014-Dec-12 09:33N 37°57' E 023°34'0 0.0
2014-Dec-12 08:33N 37°57' E 023°34'0 0.0
2014-Dec-12 07:33N 37°57' E 023°34'0 0.0
2014-Dec-12 06:33N 37°57' E 023°34'0 0.0
2014-Dec-12 05:33N 37°57' E 023°34'0 0.0
2014-Dec-12 04:33N 37°57' E 023°34'0 0.0
2014-Dec-12 03:33N 37°57' E 023°34'0 0.0
2014-Dec-12 02:33N 37°57' E 023°34'0 0.0
2014-Dec-12 01:33N 37°57' E 023°34'0 0.0
2014-Dec-12 00:33N 37°57' E 023°34'0 0.0
2014-Dec-11 23:33N 37°57' E 023°34'0 0.0
2014-Dec-11 22:33N 37°57' E 023°34'0 0.0
2014-Dec-11 21:33N 37°57' E 023°34'0 0.0
2014-Dec-11 20:33N 37°57' E 023°34'0 0.0
2014-Dec-11 19:33N 37°57' E 023°34'0 0.0
2014-Dec-11 18:33N 37°57' E 023°34'0 0.0
2014-Dec-11 17:33N 37°57' E 023°34'0 0.1
2014-Dec-11 16:33N 37°57' E 023°34'0 0.1
2014-Dec-11 15:33N 37°57' E 023°34'0 0.0
2014-Dec-11 14:33N 37°57' E 023°34'2 2.0
2014-Dec-11 13:33N 37°55' E 023°34'0 0.0
2014-Dec-11 12:33N 37°55' E 023°34'2 2.0
2014-Dec-11 11:33N 37°57' E 023°35'0 0.0
2014-Dec-11 10:33N 37°57' E 023°35'0 0.0
2014-Dec-11 09:33N 37°57' E 023°35'0 0.1
2014-Dec-11 08:33N 37°57' E 023°35'0 0.0
2014-Dec-11 07:33N 37°57' E 023°35'0 0.0
2014-Dec-11 06:33N 37°57' E 023°35'0 0.0
2014-Dec-11 05:33N 37°57' E 023°35'0 0.0
2014-Dec-11 04:33N 37°57' E 023°35'0 0.0
2014-Dec-11 03:33N 37°57' E 023°35'0 0.0
2014-Dec-11 02:33N 37°57' E 023°35'0 0.0
2014-Dec-11 01:33N 37°57' E 023°35'0 0.0
2014-Dec-11 00:34N 37°57' E 023°35'2 2.3
2014-Dec-10 23:33N 37°55' E 023°33'9 8.9
2014-Dec-10 22:33N 37°52' E 023°23'10 9.2
2014-Dec-10 21:31N 37°54' E 023°11'5 4.9
2014-Dec-10 20:33N 37°55' E 023°05'0 0.0
2014-Dec-10 19:33N 37°55' E 023°05'0 0.0
2014-Dec-10 18:33N 37°55' E 023°05'0 0.0
2014-Dec-10 17:33N 37°55' E 023°05'0 0.0
2014-Dec-10 16:33N 37°55' E 023°05'0 0.0
2014-Dec-10 15:33N 37°55' E 023°05'0 0.0
2014-Dec-10 14:33N 37°55' E 023°05'0 0.0
2014-Dec-10 13:33N 37°55' E 023°05'0 0.0
2014-Dec-10 12:33N 37°55' E 023°05'0 0.0
2014-Dec-10 11:33N 37°55' E 023°05'0 0.0
2014-Dec-10 10:33N 37°55' E 023°05'1 0.7
2014-Dec-10 09:25N 37°54' E 023°05'  

Dump ship's entire track history